sensor_id;sensor_type;location;lat;lon;timestamp;temperature;humidity
12374;DHT22;6251;51.762;8.660;2023-04-03T01:03:26;0.50;99.90
12374;DHT22;6251;51.762;8.660;2023-04-03T01:13:31;0.50;99.90
12374;DHT22;6251;51.762;8.660;2023-04-03T02:55:06;-0.60;99.90
12374;DHT22;6251;51.762;8.660;2023-04-03T04:06:09;-1.40;99.90
12374;DHT22;6251;51.762;8.660;2023-04-03T04:16:09;-1.40;99.90
12374;DHT22;6251;51.762;8.660;2023-04-03T04:26:10;-1.50;99.90
12374;DHT22;6251;51.762;8.660;2023-04-03T04:36:10;-1.70;99.90
12374;DHT22;6251;51.762;8.660;2023-04-03T04:46:11;-1.70;99.90
12374;DHT22;6251;51.762;8.660;2023-04-03T04:56:12;-1.80;99.90
12374;DHT22;6251;51.762;8.660;2023-04-03T05:06:12;-1.90;99.90
12374;DHT22;6251;51.762;8.660;2023-04-03T05:16:13;-2.00;99.90
12374;DHT22;6251;51.762;8.660;2023-04-03T05:26:14;-2.00;99.90
12374;DHT22;6251;51.762;8.660;2023-04-03T05:36:14;-1.90;99.90
12374;DHT22;6251;51.762;8.660;2023-04-03T05:46:18;-1.80;99.90
12374;DHT22;6251;51.762;8.660;2023-04-03T05:56:19;-1.70;99.90
12374;DHT22;6251;51.762;8.660;2023-04-03T06:06:25;-1.50;99.90
12374;DHT22;6251;51.762;8.660;2023-04-03T06:16:31;-1.40;99.90
12374;DHT22;6251;51.762;8.660;2023-04-03T06:26:33;-1.20;99.90
12374;DHT22;6251;51.762;8.660;2023-04-03T06:36:34;-1.00;99.90
12374;DHT22;6251;51.762;8.660;2023-04-03T06:46:35;-0.70;99.90
12374;DHT22;6251;51.762;8.660;2023-04-03T06:56:36;-0.50;99.90
12374;DHT22;6251;51.762;8.660;2023-04-03T07:06:37;-0.30;99.90
12374;DHT22;6251;51.762;8.660;2023-04-03T07:16:37;0.00;99.90
12374;DHT22;6251;51.762;8.660;2023-04-03T07:26:38;0.20;99.90
12374;DHT22;6251;51.762;8.660;2023-04-03T07:36:38;0.50;99.90
12374;DHT22;6251;51.762;8.660;2023-04-03T07:46:39;0.70;99.90
12374;DHT22;6251;51.762;8.660;2023-04-03T07:56:41;1.00;99.90
12374;DHT22;6251;51.762;8.660;2023-04-03T08:06:43;1.30;99.90
12374;DHT22;6251;51.762;8.660;2023-04-03T08:16:45;1.50;99.90
12374;DHT22;6251;51.762;8.660;2023-04-03T08:26:45;1.80;99.90
12374;DHT22;6251;51.762;8.660;2023-04-03T08:36:46;2.00;99.90
12374;DHT22;6251;51.762;8.660;2023-04-03T08:57:12;2.60;99.90
12374;DHT22;6251;51.762;8.660;2023-04-03T09:07:20;2.80;99.90
12374;DHT22;6251;51.762;8.660;2023-04-03T09:27:27;3.40;99.90
12374;DHT22;6251;51.762;8.660;2023-04-03T09:37:43;3.60;99.90
12374;DHT22;6251;51.762;8.660;2023-04-03T09:47:44;3.90;99.90
12374;DHT22;6251;51.762;8.660;2023-04-03T09:57:45;4.20;99.90
12374;DHT22;6251;51.762;8.660;2023-04-03T10:07:46;4.30;99.90
12374;DHT22;6251;51.762;8.660;2023-04-03T10:17:56;4.60;99.90
12374;DHT22;6251;51.762;8.660;2023-04-03T10:28:05;4.80;99.90
12374;DHT22;6251;51.762;8.660;2023-04-03T10:38:43;5.30;99.90
12374;DHT22;6251;51.762;8.660;2023-04-03T10:49:25;5.70;99.90
12374;DHT22;6251;51.762;8.660;2023-04-03T10:59:48;5.60;99.90
12374;DHT22;6251;51.762;8.660;2023-04-03T11:09:56;6.00;99.90
12374;DHT22;6251;51.762;8.660;2023-04-03T11:20:18;6.60;99.90
12374;DHT22;6251;51.762;8.660;2023-04-03T11:30:25;7.10;99.90
12374;DHT22;6251;51.762;8.660;2023-04-03T11:40:32;6.90;99.90
12374;DHT22;6251;51.762;8.660;2023-04-03T12:21:14;7.70;99.90
12374;DHT22;6251;51.762;8.660;2023-04-03T12:31:19;7.80;99.90
12374;DHT22;6251;51.762;8.660;2023-04-03T12:51:39;9.20;99.90
12374;DHT22;6251;51.762;8.660;2023-04-03T13:01:40;9.60;99.90
12374;DHT22;6251;51.762;8.660;2023-04-03T13:11:42;9.70;99.90
12374;DHT22;6251;51.762;8.660;2023-04-03T13:21:44;9.90;99.90
12374;DHT22;6251;51.762;8.660;2023-04-03T13:31:45;10.00;99.90
12374;DHT22;6251;51.762;8.660;2023-04-03T13:41:49;9.90;99.90
12374;DHT22;6251;51.762;8.660;2023-04-03T13:51:50;9.10;99.90
12374;DHT22;6251;51.762;8.660;2023-04-03T14:01:55;8.50;99.90
12374;DHT22;6251;51.762;8.660;2023-04-03T14:12:15;8.30;99.90
12374;DHT22;6251;51.762;8.660;2023-04-03T14:22:25;8.30;99.90
12374;DHT22;6251;51.762;8.660;2023-04-03T14:32:26;8.40;99.90
12374;DHT22;6251;51.762;8.660;2023-04-03T14:42:32;9.40;99.90
12374;DHT22;6251;51.762;8.660;2023-04-03T14:52:35;9.40;99.90
12374;DHT22;6251;51.762;8.660;2023-04-03T15:02:37;8.90;99.90
12374;DHT22;6251;51.762;8.660;2023-04-03T15:12:38;9.00;99.90
12374;DHT22;6251;51.762;8.660;2023-04-03T15:22:38;9.00;99.90
12374;DHT22;6251;51.762;8.660;2023-04-03T15:32:39;8.80;99.90
12374;DHT22;6251;51.762;8.660;2023-04-03T15:42:40;9.40;99.90
12374;DHT22;6251;51.762;8.660;2023-04-03T15:52:41;8.90;99.90
12374;DHT22;6251;51.762;8.660;2023-04-03T16:02:42;8.40;99.90
12374;DHT22;6251;51.762;8.660;2023-04-03T16:12:44;8.20;99.90
12374;DHT22;6251;51.762;8.660;2023-04-03T16:22:45;8.70;99.90
12374;DHT22;6251;51.762;8.660;2023-04-03T16:32:46;9.00;99.90
12374;DHT22;6251;51.762;8.660;2023-04-03T16:42:47;9.60;99.90
12374;DHT22;6251;51.762;8.660;2023-04-03T16:52:47;12.10;99.40
12374;DHT22;6251;51.762;8.660;2023-04-03T17:02:48;11.10;99.90
12374;DHT22;6251;51.762;8.660;2023-04-03T17:12:48;9.80;99.90
12374;DHT22;6251;51.762;8.660;2023-04-03T17:22:49;8.50;99.90
12374;DHT22;6251;51.762;8.660;2023-04-03T17:32:50;7.80;99.90
12374;DHT22;6251;51.762;8.660;2023-04-03T17:42:50;7.20;99.90
12374;DHT22;6251;51.762;8.660;2023-04-03T17:52:51;6.70;99.90
12374;DHT22;6251;51.762;8.660;2023-04-03T18:02:57;6.20;99.90
12374;DHT22;6251;51.762;8.660;2023-04-03T18:12:58;5.80;99.90
12374;DHT22;6251;51.762;8.660;2023-04-03T18:22:58;5.40;99.90
12374;DHT22;6251;51.762;8.660;2023-04-03T18:32:59;5.10;99.90
12374;DHT22;6251;51.762;8.660;2023-04-03T18:43:01;4.70;99.90
12374;DHT22;6251;51.762;8.660;2023-04-03T18:53:02;4.30;99.90
12374;DHT22;6251;51.762;8.660;2023-04-03T19:03:03;4.10;99.90
12374;DHT22;6251;51.762;8.660;2023-04-03T19:13:04;3.80;99.90
12374;DHT22;6251;51.762;8.660;2023-04-03T19:23:05;3.50;99.90
12374;DHT22;6251;51.762;8.660;2023-04-03T19:33:05;3.20;99.90
12374;DHT22;6251;51.762;8.660;2023-04-03T19:43:06;3.00;99.90
12374;DHT22;6251;51.762;8.660;2023-04-03T19:53:07;2.70;99.90
12374;DHT22;6251;51.762;8.660;2023-04-03T20:03:14;2.50;99.90
12374;DHT22;6251;51.762;8.660;2023-04-03T20:13:14;2.30;99.90
12374;DHT22;6251;51.762;8.660;2023-04-03T20:23:15;2.10;99.90
12374;DHT22;6251;51.762;8.660;2023-04-03T20:33:20;1.90;99.90
12374;DHT22;6251;51.762;8.660;2023-04-03T20:43:21;1.70;99.90
12374;DHT22;6251;51.762;8.660;2023-04-03T20:53:23;1.50;99.90
12374;DHT22;6251;51.762;8.660;2023-04-03T23:05:28;-0.40;99.90
